Time;durP1;ratioP1;P1;durP2;ratioP2;P2;SDS_P1;SDS_P2;PMS_P1;PMS_P2;Temp;Humidity;BMP_temperature;BMP_pressure;BME280_temperature;BME280_humidity;BME280_pressure;Samples;Min_cycle;Max_cycle;Signal;HPM_P1;HPM_P2
2022/12/28 00:01:14;;;;;;;21.52;5.82;;;;;;;-0.26;100.00;101175.25;6243588;28;20044;-74
2022/12/28 00:04:17;;;;;;;17.73;6.40;;;;;;;-0.31;100.00;101167.53;6246721;28;20113;-74
2022/12/28 00:07:18;;;;;;;14.82;7.18;;;;;;;-0.36;100.00;101178.66;6247938;28;20516;-74
2022/12/28 00:10:19;;;;;;;9.63;4.85;;;;;;;-0.34;100.00;101184.63;6255689;28;20041;-74
2022/12/28 00:13:19;;;;;;;12.35;5.80;;;;;;;-0.28;100.00;101193.19;6249136;28;20037;-74
2022/12/28 00:16:28;;;;;;;20.23;7.80;;;;;;;-0.22;100.00;101192.34;6250863;28;20107;-74
2022/12/28 00:19:32;;;;;;;17.60;7.95;;;;;;;-0.20;100.00;101193.22;6232810;28;20049;-74
2022/12/28 00:22:32;;;;;;;14.23;7.90;;;;;;;-0.19;100.00;101182.06;6248716;28;20116;-74
2022/12/28 00:25:36;;;;;;;16.20;8.32;;;;;;;-0.19;100.00;101182.06;6255289;28;20412;-75
2022/12/28 00:28:38;;;;;;;14.40;8.05;;;;;;;-0.14;100.00;101182.94;6248569;28;20129;-75
2022/12/28 00:31:39;;;;;;;28.63;8.30;;;;;;;-0.13;100.00;101183.81;6247740;28;20048;-76
2022/12/28 00:34:39;;;;;;;20.25;6.10;;;;;;;-0.12;100.00;101188.09;6247609;28;20322;-76
2022/12/28 00:37:40;;;;;;;13.02;7.60;;;;;;;-0.08;100.00;101189.81;6248345;28;20683;-75
2022/12/28 00:40:45;;;;;;;11.48;6.30;;;;;;;-0.25;100.00;101194.91;6247321;28;20116;-75
2022/12/28 00:43:45;;;;;;;9.00;3.60;;;;;;;-0.25;100.00;101193.22;6248157;28;20140;-76
2022/12/28 00:46:46;;;;;;;6.80;2.95;;;;;;;-0.13;100.00;101197.47;6249211;28;20053;-75
2022/12/28 00:49:48;;;;;;;15.88;5.70;;;;;;;-0.08;100.00;101200.06;6248480;28;20068;-75
2022/12/28 00:52:51;;;;;;;9.77;4.90;;;;;;;-0.06;100.00;101211.19;6261203;28;20466;-74
2022/12/28 00:55:52;;;;;;;9.32;3.75;;;;;;;-0.29;100.00;101208.56;6248998;28;20045;-74
2022/12/28 00:58:57;;;;;;;10.43;4.03;;;;;;;-0.17;100.00;101208.59;6246999;28;20041;-75
2022/12/28 01:01:58;;;;;;;2.08;1.83;;;;;;;-0.09;100.00;101201.75;6248143;28;20412;-75
2022/12/28 01:04:59;;;;;;;2.95;2.03;;;;;;;-0.09;100.00;101204.31;6248511;28;20041;-75
2022/12/28 01:08:02;;;;;;;3.03;1.70;;;;;;;-0.11;100.00;101197.47;6253285;28;20041;-76
2022/12/28 01:11:08;;;;;;;4.03;2.10;;;;;;;-0.08;100.00;101197.50;6247733;28;20052;-74
2022/12/28 01:14:09;;;;;;;3.65;1.83;;;;;;;-0.03;100.00;101191.50;6248143;28;20045;-74
2022/12/28 01:17:10;;;;;;;1.50;1.02;;;;;;;0.01;100.00;101194.94;6247550;28;20049;-75
2022/12/28 01:20:11;;;;;;;1.98;1.25;;;;;;;0.07;100.00;101199.22;6247489;28;20041;-76
2022/12/28 01:23:11;;;;;;;7.43;1.55;;;;;;;0.11;100.00;101198.38;6247325;28;20042;-75
2022/12/28 01:26:13;;;;;;;1.80;1.33;;;;;;;0.14;100.00;101199.19;6247214;28;20107;-74
2022/12/28 01:29:14;;;;;;;4.40;1.80;;;;;;;0.15;100.00;101193.22;6247530;28;20034;-74
2022/12/28 01:32:15;;;;;;;1.50;0.85;;;;;;;0.16;100.00;101196.66;6248520;28;20466;-74
2022/12/28 01:35:15;;;;;;;5.35;1.63;;;;;;;0.24;100.00;101191.50;6247352;28;20049;-75
2022/12/28 01:38:16;;;;;;;2.47;1.40;;;;;;;0.26;100.00;101198.34;6247308;28;20068;-74
2022/12/28 01:41:18;;;;;;;4.57;2.40;;;;;;;0.18;100.00;101195.78;6247227;28;20149;-74
2022/12/28 01:44:25;;;;;;;1.83;1.30;;;;;;;0.06;100.00;101206.03;6247204;28;20409;-74
2022/12/28 01:47:32;;;;;;;3.58;2.58;;;;;;;-0.04;100.00;101201.78;6248247;28;20056;-75
2022/12/28 01:50:33;;;;;;;4.40;2.50;;;;;;;-0.04;100.00;101212.91;6248274;28;20045;-74
2022/12/28 01:53:36;;;;;;;2.33;1.95;;;;;;;-0.05;100.00;101203.47;6246905;28;20191;-76
2022/12/28 01:56:38;;;;;;;1.88;1.73;;;;;;;0.01;100.00;101206.91;6248183;28;20052;-74
2022/12/28 01:59:44;;;;;;;2.92;1.67;;;;;;;0.01;100.00;101201.78;6246901;28;20049;-75
2022/12/28 02:02:59;;;;;;;3.17;1.80;;;;;;;0.01;100.00;101202.63;6247942;28;20068;-75
2022/12/28 02:06:04;;;;;;;3.70;1.60;;;;;;;-0.13;100.00;101206.88;6247805;28;20064;-75
2022/12/28 02:09:22;;;;;;;6.38;1.60;;;;;;;-0.24;100.00;101214.56;6246565;28;20045;-74
2022/12/28 02:12:23;;;;;;;1.63;1.33;;;;;;;-0.24;100.00;101214.56;6246675;28;20048;-73
2022/12/28 02:15:25;;;;;;;1.20;1.07;;;;;;;-0.32;100.00;101208.56;6245917;28;20060;-74
2022/12/28 02:18:26;;;;;;;3.35;1.52;;;;;;;-0.36;100.00;101209.41;6246601;28;20414;-74
2022/12/28 02:21:50;;;;;;;1.23;1.13;;;;;;;-0.61;100.00;101204.22;6247347;28;20042;-75
2022/12/28 02:25:03;;;;;;;3.42;2.00;;;;;;;-0.48;100.00;101208.50;6227220;28;20291;-75
2022/12/28 02:28:34;;;;;;;3.92;1.65;;;;;;;-0.37;100.00;101205.13;6245682;28;20378;-75
2022/12/28 02:31:41;;;;;;;2.10;1.63;;;;;;;-0.41;100.00;101210.25;6246129;28;20371;-74
2022/12/28 02:34:56;;;;;;;2.15;1.42;;;;;;;-0.53;100.00;101205.09;6246395;28;20037;-75
2022/12/28 02:38:11;;;;;;;2.83;1.58;;;;;;;-0.55;100.00;101204.25;6246090;28;20045;-75
2022/12/28 02:41:19;;;;;;;3.33;2.00;;;;;;;-0.74;100.00;101197.31;6245506;28;20041;-75
2022/12/28 02:51:30;;;;;;;3.50;1.25;;;;;;;-0.89;100.00;101193.00;6246313;28;20048;-75
2022/12/28 02:58:46;;;;;;;5.80;1.60;;;;;;;-0.81;100.00;101192.16;6219613;28;20057;-75
2022/12/28 03:02:13;;;;;;;4.25;1.55;;;;;;;-0.87;100.00;101192.16;6207232;28;20464;-75
2022/12/28 03:08:13;;;;;;;2.13;1.63;;;;;;;-0.79;100.00;101194.75;6243397;28;20061;-75
2022/12/28 03:09:13;;;;;;;1.55;1.10;;;;;;;-0.86;100.00;101198.16;6246795;28;20052;-74
2022/12/28 03:12:25;;;;;;;5.18;1.02;;;;;;;-0.95;100.00;101193.81;6238460;28;20065;-75
2022/12/28 03:15:34;;;;;;;2.10;1.38;;;;;;;-1.02;100.00;101189.53;6246895;28;20080;-73
2022/12/28 03:32:02;;;;;;;7.10;1.80;;;;;;;-1.26;100.00;101195.38;6270645;28;20128;-75
2022/12/28 03:35:03;;;;;;;1.85;1.60;;;;;;;-1.33;100.00;101193.63;6269981;28;20045;-75
2022/12/28 03:38:04;;;;;;;3.00;1.75;;;;;;;-1.32;100.00;101193.66;6263700;28;20041;-74
2022/12/28 03:41:11;;;;;;;3.45;1.42;;;;;;;-1.30;100.00;101202.16;6250169;28;20065;-75
2022/12/28 03:44:25;;;;;;;1.83;1.20;;;;;;;-1.29;100.00;101201.34;6248809;28;20048;-75
2022/12/28 03:47:28;;;;;;;4.15;2.33;;;;;;;-1.28;100.00;101202.19;6248902;28;20378;-74
2022/12/28 03:50:35;;;;;;;2.50;1.58;;;;;;;-1.28;100.00;101199.63;6248812;28;20044;-73
2022/12/28 03:53:42;;;;;;;8.02;2.92;;;;;;;-1.27;100.00;101198.78;6248776;28;20046;-74
2022/12/28 03:56:49;;;;;;;6.30;2.38;;;;;;;-1.35;100.00;101192.78;6272326;28;20062;-74
2022/12/28 03:59:50;;;;;;;5.97;3.10;;;;;;;-1.43;100.00;101201.25;6256656;28;20067;-74
2022/12/28 04:02:51;;;;;;;8.40;2.72;;;;;;;-1.43;100.00;101202.94;6265529;28;20049;-73
2022/12/28 04:05:53;;;;;;;9.02;3.20;;;;;;;-1.52;100.00;101203.75;6250402;28;20050;-74
2022/12/28 04:08:56;;;;;;;2.88;2.25;;;;;;;-1.55;100.00;101208.84;6258611;28;20094;-74
2022/12/28 04:11:58;;;;;;;3.53;1.95;;;;;;;-1.57;100.00;101212.25;6250432;28;20057;-73
2022/12/28 04:14:59;;;;;;;7.80;2.50;;;;;;;-1.61;100.00;101206.22;6264154;28;20593;-73
2022/12/28 04:18:00;;;;;;;4.53;2.08;;;;;;;-1.57;100.00;101207.97;6274057;28;20037;-75
2022/12/28 04:21:02;;;;;;;5.17;1.80;;;;;;;-1.59;100.00;101203.69;6273791;28;20131;-74
2022/12/28 04:24:03;;;;;;;2.80;2.15;;;;;;;-1.57;100.00;101196.88;6307138;28;20308;-74
2022/12/28 04:27:04;;;;;;;7.07;2.95;;;;;;;-1.60;100.00;101195.16;6273806;28;20384;-74
2022/12/28 04:30:05;;;;;;;9.48;1.85;;;;;;;-1.58;100.00;101202.88;6273837;28;20069;-75
2022/12/28 04:33:06;;;;;;;4.50;1.83;;;;;;;-1.59;100.00;101201.13;6254071;28;20360;-75
2022/12/28 04:36:11;;;;;;;2.08;1.88;;;;;;;-1.69;100.00;101213.00;6250904;28;20046;-75
2022/12/28 04:39:12;;;;;;;2.15;1.50;;;;;;;-1.70;100.00;101212.16;6274736;28;20076;-74
2022/12/28 04:42:12;;;;;;;6.35;1.70;;;;;;;-1.64;100.00;101199.41;6274582;28;20045;-73
2022/12/28 04:45:13;;;;;;;1.50;1.40;;;;;;;-1.60;100.00;101202.84;6273258;28;20041;-73
2022/12/28 04:48:14;;;;;;;2.58;1.63;;;;;;;-1.63;100.00;101198.56;6272404;28;20120;-73
2022/12/28 04:51:17;;;;;;;2.08;1.15;;;;;;;-1.58;100.00;101197.75;6272331;28;20540;-73
2022/12/28 04:54:18;;;;;;;4.65;2.17;;;;;;;-1.55;100.00;101196.03;6272767;28;20429;-74
2022/12/28 04:57:19;;;;;;;5.78;1.55;;;;;;;-1.54;100.00;101196.91;6273017;28;20075;-74
2022/12/28 05:00:20;;;;;;;1.60;1.50;;;;;;;-1.44;100.00;101191.88;6272966;28;20128;-73
2022/12/28 05:03:21;;;;;;;2.75;1.73;;;;;;;-1.48;100.00;101189.28;6272671;28;20052;-74
2022/12/28 05:06:22;;;;;;;3.50;1.85;;;;;;;-1.42;100.00;101195.28;6272480;28;20053;-75
2022/12/28 05:09:25;;;;;;;2.72;2.13;;;;;;;-1.48;100.00;101192.69;6272839;28;20644;-75
2022/12/28 05:12:27;;;;;;;0.98;0.90;;;;;;;-1.47;100.00;101191.81;6271466;28;20074;-74
2022/12/28 05:15:27;;;;;;;2.35;1.95;;;;;;;-1.52;100.00;101192.66;6247790;28;20123;-75
2022/12/28 05:18:28;;;;;;;1.92;1.50;;;;;;;-1.44;100.00;101193.56;6248624;28;20054;-74
2022/12/28 05:21:30;;;;;;;1.93;1.67;;;;;;;-1.55;100.00;101180.69;6248089;28;20090;-74
2022/12/28 05:24:31;;;;;;;2.33;1.48;;;;;;;-1.53;100.00;101178.13;6246661;28;20049;-73
2022/12/28 05:27:31;;;;;;;2.75;1.67;;;;;;;-1.49;100.00;101182.44;6247575;28;20630;-74
2022/12/28 05:30:34;;;;;;;1.75;1.38;;;;;;;-1.62;100.00;101186.63;6247610;28;20593;-74
2022/12/28 05:33:36;;;;;;;1.10;0.93;;;;;;;-1.58;100.00;101193.47;6247418;28;20053;-73
2022/12/28 05:36:38;;;;;;;3.05;0.82;;;;;;;-1.48;100.00;101185.00;6247503;28;20046;-73
2022/12/28 05:39:39;;;;;;;1.27;1.17;;;;;;;-1.50;100.00;101189.25;6247466;28;20045;-73
2022/12/28 05:42:40;;;;;;;1.88;1.63;;;;;;;-1.50;100.00;101188.41;6247159;28;20282;-74
2022/12/28 05:45:40;;;;;;;1.67;1.25;;;;;;;-1.42;100.00;101195.28;6247246;28;20052;-74
2022/12/28 05:48:42;;;;;;;2.13;1.55;;;;;;;-1.45;100.00;101190.13;6248212;28;20342;-74
2022/12/28 05:51:45;;;;;;;6.75;2.30;;;;;;;-1.46;100.00;101175.63;6247176;28;20661;-73
2022/12/28 05:54:48;;;;;;;3.35;1.63;;;;;;;-1.40;100.00;101186.75;6246885;28;20037;-74
2022/12/28 05:57:49;;;;;;;1.60;0.95;;;;;;;-1.57;100.00;101194.31;6230273;28;20049;-74
2022/12/28 06:00:49;;;;;;;0.90;0.90;;;;;;;-1.56;100.00;101194.34;6246298;28;20049;-73
2022/12/28 06:04:17;;;;;;;2.80;1.15;;;;;;;-1.53;100.00;101203.72;6247770;28;20052;-73
2022/12/28 06:07:17;;;;;;;1.48;1.05;;;;;;;-1.52;100.00;101208.88;6247495;28;20501;-73
2022/12/28 06:10:18;;;;;;;1.65;1.15;;;;;;;-1.51;100.00;101210.56;6245797;28;20048;-74
2022/12/28 06:13:21;;;;;;;1.42;1.05;;;;;;;-1.55;100.00;101208.00;6246005;28;20044;-75
2022/12/28 06:16:25;;;;;;;1.15;1.15;;;;;;;-1.49;100.00;101208.03;6247604;28;20052;-75
2022/12/28 06:19:26;;;;;;;1.15;1.10;;;;;;;-1.55;100.00;101213.94;6247714;28;20048;-75
2022/12/28 06:22:27;;;;;;;0.82;0.73;;;;;;;-1.52;100.00;101205.47;6246387;28;20489;-73
2022/12/28 06:25:28;;;;;;;1.63;1.00;;;;;;;-1.52;100.00;101208.03;6247503;28;20060;-73
2022/12/28 06:28:28;;;;;;;1.40;0.90;;;;;;;-1.58;100.00;101205.41;6247352;28;20049;-74
2022/12/28 06:31:35;;;;;;;4.47;1.08;;;;;;;-1.60;100.00;101207.97;6229613;28;20053;-74
2022/12/28 06:34:38;;;;;;;1.27;0.85;;;;;;;-1.62;100.00;101213.06;6279146;28;20053;-74
2022/12/28 06:37:38;;;;;;;1.02;0.93;;;;;;;-1.59;100.00;101203.69;6247111;28;20044;-74
2022/12/28 06:40:39;;;;;;;2.05;1.17;;;;;;;-1.48;100.00;101199.53;6245931;28;20050;-74
2022/12/28 06:43:41;;;;;;;8.05;1.25;;;;;;;-1.49;100.00;101202.91;6257265;28;20033;-73
2022/12/28 06:46:42;;;;;;;1.55;1.40;;;;;;;-1.50;100.00;101209.75;6255207;28;20076;-74
2022/12/28 06:49:44;;;;;;;0.75;0.75;;;;;;;-1.62;100.00;101228.41;6259499;28;20499;-75
2022/12/28 06:52:45;;;;;;;0.55;0.55;;;;;;;-1.66;100.00;101216.44;6269546;28;20045;-74
2022/12/28 06:55:57;;;;;;;2.05;1.55;;;;;;;-1.59;100.00;101213.94;6269231;28;20497;-73
2022/12/28 06:58:59;;;;;;;3.90;1.52;;;;;;;-1.44;100.00;101214.06;6271000;28;20048;-74
2022/12/28 07:02:04;;;;;;;3.70;2.17;;;;;;;-1.33;100.00;101222.66;6270494;28;20125;-74
2022/12/28 07:05:05;;;;;;;3.03;2.33;;;;;;;-1.34;100.00;101226.06;6269608;28;20044;-74
2022/12/28 07:08:06;;;;;;;2.33;1.55;;;;;;;-1.21;100.00;101229.56;6259730;28;20057;-74
2022/12/28 07:11:12;;;;;;;1.65;1.40;;;;;;;-1.12;100.00;101228.75;6241419;28;20489;-74
2022/12/28 07:14:15;;;;;;;12.45;1.63;;;;;;;-1.10;100.00;101225.34;6238598;28;20061;-73
2022/12/28 07:17:16;;;;;;;8.50;2.45;;;;;;;-1.05;100.00;101227.94;6232905;28;20037;-74
2022/12/28 07:20:17;;;;;;;1.65;1.55;;;;;;;-1.08;100.00;101244.16;6249375;28;20037;-73
2022/12/28 07:23:18;;;;;;;2.70;2.03;;;;;;;-0.90;100.00;101235.72;6255854;28;20052;-73
2022/12/28 07:26:21;;;;;;;3.13;1.85;;;;;;;-0.83;100.00;101245.13;6265517;28;20558;-74
2022/12/28 07:29:22;;;;;;;3.10;2.15;;;;;;;-0.76;100.00;101248.59;6261632;28;20120;-73
2022/12/28 07:32:23;;;;;;;2.03;1.50;;;;;;;-0.71;100.00;101249.47;6260020;28;20038;-73
2022/12/28 07:35:24;;;;;;;3.60;1.75;;;;;;;-0.58;100.00;101250.34;6247689;28;20500;-73
2022/12/28 07:38:25;;;;;;;4.30;2.28;;;;;;;-0.65;100.00;101244.34;6246864;28;20048;-74
2022/12/28 07:41:35;;;;;;;1.83;1.50;;;;;;;-0.41;100.00;101241.03;6265438;28;20073;-74
2022/12/28 07:44:36;;;;;;;4.72;2.38;;;;;;;-0.31;100.00;101243.63;6248667;28;20049;-74
2022/12/28 07:47:37;;;;;;;3.63;2.72;;;;;;;-0.20;100.00;101239.38;6249616;28;20103;-75
2022/12/28 07:50:37;;;;;;;5.13;2.72;;;;;;;-0.21;100.00;101242.78;6248818;28;20063;-75
2022/12/28 07:53:42;;;;;;;5.95;1.75;;;;;;;-0.21;100.00;101248.78;6232140;28;20501;-74
2022/12/28 07:56:43;;;;;;;3.50;1.35;;;;;;;-0.21;100.00;101245.34;6232013;28;20524;-75
2022/12/28 07:59:46;;;;;;;5.07;2.20;;;;;;;-0.01;100.00;101246.25;6232233;28;20053;-73
2022/12/28 08:02:47;;;;;;;1.73;1.42;;;;;;;-0.11;100.00;101236.81;6249707;28;20073;-74
2022/12/28 08:05:48;;;;;;;1.55;1.27;;;;;;;0.10;100.00;101243.69;6248111;28;20140;-75
2022/12/28 08:08:52;;;;;;;2.05;1.48;;;;;;;0.06;100.00;101241.13;6248293;28;20041;-74
2022/12/28 08:11:53;;;;;;;3.60;2.38;;;;;;;0.21;100.00;101251.41;6249540;28;20044;-75
2022/12/28 08:14:54;;;;;;;2.58;1.65;;;;;;;0.39;100.00;101245.41;6249257;28;20041;-75
2022/12/28 08:17:55;;;;;;;1.55;1.13;;;;;;;0.23;100.00;101253.97;6248021;28;20041;-75
2022/12/28 08:21:10;;;;;;;1.52;1.42;;;;;;;0.35;100.00;101256.53;6249293;28;20458;-75
2022/12/28 08:24:17;;;;;;;0.60;0.60;;;;;;;0.41;100.00;101266.81;6260076;28;20166;-75
2022/12/28 08:27:18;;;;;;;13.18;1.30;;;;;;;0.42;100.00;101262.56;6256514;28;20049;-73
2022/12/28 08:30:21;;;;;;;2.17;1.98;;;;;;;0.58;100.00;101267.69;6257446;28;20075;-74
2022/12/28 08:33:22;;;;;;;0.82;0.82;;;;;;;0.67;100.00;101268.53;6254907;28;20052;-74
2022/12/28 08:36:23;;;;;;;0.93;0.93;;;;;;;0.87;100.00;101271.09;6248886;28;20050;-73
2022/12/28 08:39:24;;;;;;;0.88;0.88;;;;;;;1.05;100.00;101272.75;6234960;28;20049;-74
2022/12/28 08:42:25;;;;;;;1.27;1.17;;;;;;;1.16;100.00;101271.88;6248549;28;20048;-74
2022/12/28 08:45:26;;;;;;;5.05;2.08;;;;;;;1.22;100.00;101265.00;6248551;28;20121;-74
2022/12/28 08:59:26;;;;;;;4.85;2.90;;;;;;;1.50;97.73;101263.16;6307346;27;1524097;-78
2022/12/28 09:02:27;;;;;;;3.00;1.83;;;;;;;1.70;97.85;101265.66;6308051;28;20082;-79
2022/12/28 09:05:28;;;;;;;2.83;1.35;;;;;;;2.00;95.60;101264.66;6343874;28;20040;-78
2022/12/28 09:08:29;;;;;;;2.60;1.55;;;;;;;1.92;95.55;101262.09;6342482;28;20126;-79
2022/12/28 09:11:30;;;;;;;0.82;0.80;;;;;;;1.93;94.67;101257.81;6326123;28;20066;-79
2022/12/28 09:14:30;;;;;;;1.33;1.23;;;;;;;1.94;95.50;101252.66;6323925;28;20415;-80
2022/12/28 09:17:31;;;;;;;1.80;1.40;;;;;;;2.30;95.62;101248.09;6342909;28;20044;-78
2022/12/28 09:20:33;;;;;;;1.08;0.95;;;;;;;2.35;94.93;101248.94;6343325;28;20119;-76
2022/12/28 09:23:35;;;;;;;2.80;1.88;;;;;;;2.24;94.33;101245.56;6342086;28;20097;-77
2022/12/28 09:26:37;;;;;;;2.60;1.30;;;;;;;2.51;94.73;101241.06;6311668;28;20094;-78
2022/12/28 09:29:38;;;;;;;;;;;;;;;2.43;93.98;101254.03;6329880;28;20146;-78
2022/12/28 09:32:39;;;;;;;2.72;1.58;;;;;;;2.53;93.98;101240.22;6334182;28;20382;-80
2022/12/28 09:35:42;;;;;;;4.53;1.35;;;;;;;2.40;94.17;101236.84;6316406;28;20043;-81
2022/12/28 09:38:42;;;;;;;3.17;1.60;;;;;;;2.52;93.68;101240.22;6312617;28;20057;-81
2022/12/28 09:41:44;;;;;;;5.45;1.73;;;;;;;2.60;93.00;101239.28;6324074;28;20071;-80
2022/12/28 09:45:08;;;;;;;6.20;1.70;;;;;;;2.72;92.28;101229.69;6311067;28;20403;-81
2022/12/28 09:48:15;;;;;;;1.42;1.13;;;;;;;2.74;90.83;101231.41;6318816;28;20074;-81
2022/12/28 09:51:16;;;;;;;5.95;2.33;;;;;;;2.67;93.67;101227.16;6321886;28;20047;-78
2022/12/28 09:54:17;;;;;;;2.75;1.65;;;;;;;2.53;93.58;101219.59;6322527;28;20050;-78
2022/12/28 09:57:19;;;;;;;3.60;1.73;;;;;;;2.63;93.58;101222.91;6340854;28;20079;-78
2022/12/28 10:00:27;;;;;;;2.97;1.60;;;;;;;2.73;93.54;101219.38;6307056;28;20040;-82
2022/12/28 10:03:43;;;;;;;1.42;1.23;;;;;;;2.60;93.49;101217.81;6289116;28;20048;-77
2022/12/28 10:06:43;;;;;;;1.92;1.38;;;;;;;2.70;93.78;101227.16;6288483;28;20131;-77
2022/12/28 10:09:46;;;;;;;3.95;1.85;;;;;;;2.68;94.18;101215.13;6306109;28;20036;-78
2022/12/28 10:12:50;;;;;;;2.55;1.50;;;;;;;3.06;92.92;101212.16;6324022;28;20484;-81
2022/12/28 10:15:51;;;;;;;1.33;1.23;;;;;;;3.08;92.49;101207.84;6323826;28;20039;-77
2022/12/28 10:18:53;;;;;;;2.72;1.40;;;;;;;2.99;93.47;101202.81;6305657;28;20036;-78
2022/12/28 10:33:48;;;;;;;2.92;1.92;;;;;;;2.93;92.31;101200.28;6340810;27;20827;-75
2022/12/28 10:36:51;;;;;;;5.47;2.08;;;;;;;3.22;91.03;101199.94;6359331;27;20083;-75
2022/12/28 10:40:19;;;;;;;3.67;2.22;;;;;;;3.14;91.93;101188.88;6342178;28;20715;-76
2022/12/28 10:43:20;;;;;;;4.13;2.40;;;;;;;3.26;92.14;101190.44;6343626;28;20048;-76
2022/12/28 10:46:22;;;;;;;2.88;1.63;;;;;;;3.00;93.89;101199.34;6335145;28;20497;-79
2022/12/28 10:49:25;;;;;;;4.00;2.08;;;;;;;3.06;93.19;101178.63;6321083;28;20509;-79
2022/12/28 10:52:26;;;;;;;2.85;1.60;;;;;;;3.24;92.90;101185.28;6341754;28;20045;-75
2022/12/28 10:55:32;;;;;;;6.90;1.70;;;;;;;3.50;93.02;101184.97;6340844;28;20044;-75
2022/12/28 10:58:33;;;;;;;6.90;1.60;;;;;;;3.42;92.08;101182.47;6338880;28;20044;-75
2022/12/28 11:01:35;;;;;;;5.78;1.85;;;;;;;3.72;91.83;101169.16;6316931;28;20123;-75
2022/12/28 11:04:35;;;;;;;4.72;2.75;;;;;;;3.94;91.03;101172.28;6340386;28;20044;-75
2022/12/28 11:07:40;;;;;;;3.72;2.33;;;;;;;3.98;90.78;101169.63;6341595;28;20063;-78
2022/12/28 11:10:40;;;;;;;2.97;2.22;;;;;;;3.92;90.50;101169.72;6341864;28;20154;-78
2022/12/28 11:13:49;;;;;;;3.30;2.20;;;;;;;3.75;90.79;101172.56;6358713;28;20052;-79
2022/12/28 11:16:52;;;;;;;2.65;2.05;;;;;;;3.79;91.71;101163.03;6341682;28;20636;-75
2022/12/28 11:20:06;;;;;;;4.03;2.25;;;;;;;3.85;91.90;101160.38;6331948;28;20057;-75
2022/12/28 11:23:17;;;;;;;3.17;1.80;;;;;;;4.06;90.92;101153.13;6364879;27;20052;-75
2022/12/28 11:26:19;;;;;;;3.58;2.17;;;;;;;4.03;90.97;101152.28;6330394;28;20055;-75
2022/12/28 11:29:20;;;;;;;2.92;2.33;;;;;;;4.05;89.46;101152.28;6314778;28;20039;-75
2022/12/28 11:32:37;;;;;;;2.78;1.63;;;;;;;4.04;91.48;101151.44;6286474;28;20045;-76
2022/12/28 11:35:39;;;;;;;5.97;2.13;;;;;;;4.24;90.68;101161.44;6257768;28;20048;-75
2022/12/28 11:38:41;;;;;;;;;;;;;;;4.48;89.86;101156.72;6274852;28;20040;-76
2022/12/28 11:41:43;;;;;;;3.90;1.92;;;;;;;4.59;90.47;101157.38;6307926;28;20009;-79
2022/12/28 11:44:44;;;;;;;;;;;;;;;4.57;89.38;101145.34;6274848;28;20056;-79
2022/12/28 11:47:45;;;;;;;2.92;1.85;;;;;;;4.69;89.16;101141.69;6275487;28;19920;-79
2022/12/28 11:50:50;;;;;;;4.65;2.22;;;;;;;4.72;88.53;101139.06;6274275;28;20447;-79
2022/12/28 11:54:02;;;;;;;4.38;2.53;;;;;;;4.57;87.78;101124.66;6274347;28;20072;-79
2022/12/28 11:57:03;;;;;;;5.10;3.25;;;;;;;4.76;88.61;101128.59;6275389;28;20044;-79
2022/12/28 12:00:19;;;;;;;3.03;2.20;;;;;;;4.82;89.19;101127.66;6285007;28;20036;-79
2022/12/28 12:03:20;;;;;;;5.63;1.92;;;;;;;4.92;87.94;101128.28;6278464;28;20094;-78
2022/12/28 12:06:43;;;;;;;4.75;2.78;;;;;;;5.10;87.73;101130.50;6297236;28;20049;-75
2022/12/28 12:09:47;;;;;;;3.60;2.22;;;;;;;5.13;87.19;101125.28;6298572;28;20044;-79
2022/12/28 12:12:51;;;;;;;2.45;2.00;;;;;;;5.18;86.57;101123.41;6299666;28;20089;-79
2022/12/28 12:15:55;;;;;;;4.13;1.88;;;;;;;5.17;88.04;101113.13;6297365;28;20047;-75
2022/12/28 12:18:58;;;;;;;4.50;1.70;;;;;;;5.22;88.38;101106.09;6310437;28;20047;-75
2022/12/28 12:22:15;;;;;;;6.35;2.70;;;;;;;5.43;86.98;101115.13;6326450;28;20049;-75
2022/12/28 12:25:36;;;;;;;1.58;1.48;;;;;;;5.30;86.09;101113.69;6300870;28;20088;-75
2022/12/28 12:28:46;;;;;;;3.50;2.40;;;;;;;5.20;86.26;101113.03;6277781;28;20055;-79
2022/12/28 12:32:20;;;;;;;3.58;2.17;;;;;;;5.19;86.63;101101.00;6299994;28;20053;-79
2022/12/28 12:35:26;;;;;;;1.05;1.00;;;;;;;4.98;87.49;101097.13;6310176;28;20511;-79
2022/12/28 12:39:13;;;;;;;1.80;1.35;;;;;;;4.98;88.73;101090.22;6301147;28;20404;-79
2022/12/28 12:42:35;;;;;;;1.40;1.10;;;;;;;4.92;90.32;101094.66;6315871;28;20036;-79
2022/12/28 12:46:00;;;;;;;3.92;2.08;;;;;;;5.04;91.29;101089.22;6280551;28;20129;-79
2022/12/28 12:49:08;;;;;;;1.85;1.60;;;;;;;4.87;91.30;101086.16;6304290;28;20044;-79
2022/12/28 12:52:08;;;;;;;3.83;2.28;;;;;;;4.95;90.92;101087.69;6304463;28;20053;-79
2022/12/28 12:55:29;;;;;;;5.10;2.47;;;;;;;4.84;91.08;101076.75;6287701;28;20049;-75
2022/12/28 12:58:56;;;;;;;4.13;1.88;;;;;;;4.92;89.72;101069.69;6287796;28;20118;-75
2022/12/28 13:01:57;;;;;;;5.28;1.73;;;;;;;5.01;88.77;101084.13;6271625;28;20084;-75
2022/12/28 13:05:02;;;;;;;2.42;1.98;;;;;;;5.06;88.37;101077.13;6272462;28;20045;-79
2022/12/28 13:08:03;;;;;;;6.05;1.83;;;;;;;5.10;88.54;101070.16;6271596;28;20488;-79
2022/12/28 13:11:08;;;;;;;4.27;2.13;;;;;;;5.15;88.23;101074.34;6271984;28;20048;-76
2022/12/28 13:14:21;;;;;;;5.10;2.15;;;;;;;5.07;88.94;101078.00;6287315;28;20945;-76
2022/12/28 13:17:24;;;;;;;3.95;2.17;;;;;;;4.97;89.87;101067.81;6272046;28;20045;-76
2022/12/28 13:20:25;;;;;;;4.80;2.20;;;;;;;5.03;89.44;101052.16;6271726;28;20480;-76
2022/12/28 13:23:29;;;;;;;4.47;2.10;;;;;;;4.90;90.46;101050.75;6271762;28;20408;-75
2022/12/28 13:26:33;;;;;;;2.78;1.70;;;;;;;4.90;90.70;101049.88;6270655;28;20264;-81
2022/12/28 13:29:38;;;;;;;4.53;2.25;;;;;;;4.87;90.62;101045.63;6287175;28;20044;-80
2022/12/28 13:32:58;;;;;;;4.97;2.67;;;;;;;4.81;91.77;101054.38;6303632;28;20072;-76
2022/12/28 13:36:08;;;;;;;5.10;2.33;;;;;;;4.82;92.21;101055.25;6270425;28;20598;-77
2022/12/28 13:39:12;;;;;;;7.25;3.28;;;;;;;4.74;92.97;101050.22;6303635;28;20033;-77
2022/12/28 13:42:19;;;;;;;4.95;2.22;;;;;;;4.63;93.72;101045.28;6299778;28;20071;-77
2022/12/28 13:45:21;;;;;;;5.28;2.55;;;;;;;4.63;93.34;101041.81;6282031;28;20051;-77
2022/12/28 13:48:23;;;;;;;5.15;2.53;;;;;;;4.57;93.90;101034.19;6305693;28;20044;-77
2022/12/28 13:51:24;;;;;;;4.60;2.63;;;;;;;4.57;93.75;101022.13;6308243;28;20063;-77
2022/12/28 13:54:26;;;;;;;9.93;2.38;;;;;;;4.52;94.36;101029.13;6285108;28;20071;-77
2022/12/28 13:57:30;;;;;;;7.47;3.03;;;;;;;4.39;95.14;101017.34;6291465;28;20139;-79
2022/12/28 14:00:32;;;;;;;4.40;2.95;;;;;;;4.34;96.02;101017.41;6288964;28;20483;-77
2022/12/28 14:03:37;;;;;;;6.68;3.88;;;;;;;4.27;97.56;101009.84;6308040;28;20118;-77
2022/12/28 14:06:39;;;;;;;6.80;3.92;;;;;;;4.24;98.90;101002.97;6300712;28;20110;-77
2022/12/28 14:09:40;;;;;;;;;;;;;;;4.17;100.00;100994.50;6294179;28;20048;-74
2022/12/28 14:12:42;;;;;;;13.20;4.03;;;;;;;4.19;100.00;100994.47;6300869;28;19947;-74
2022/12/28 14:15:44;;;;;;;4.90;3.63;;;;;;;4.02;100.00;100990.47;6293362;28;20550;-77
2022/12/28 14:18:46;;;;;;;5.95;4.05;;;;;;;4.01;100.00;101003.41;6287300;28;20066;-77
2022/12/28 14:21:47;;;;;;;9.70;5.00;;;;;;;3.88;100.00;101013.13;6295822;28;20045;-77
2022/12/28 14:25:02;;;;;;;5.63;4.15;;;;;;;3.90;100.00;101013.09;6319346;28;20444;-77
2022/12/28 14:28:05;;;;;;;11.52;6.25;;;;;;;3.93;100.00;101020.78;6306088;28;20093;-77
2022/12/28 14:31:08;;;;;;;8.23;4.82;;;;;;;3.97;100.00;101025.00;6319203;28;20075;-78
2022/12/28 14:34:22;;;;;;;13.60;7.00;;;;;;;3.82;100.00;101015.81;6299012;28;20048;-76
2022/12/28 14:37:29;;;;;;;11.90;7.65;;;;;;;3.71;100.00;101018.59;6306353;28;20119;-76
2022/12/28 14:40:35;;;;;;;21.60;8.43;;;;;;;3.64;100.00;101019.56;6297749;28;20067;-77
2022/12/28 14:43:36;;;;;;;7.78;3.50;;;;;;;3.49;100.00;101018.09;6305079;28;20076;-74
2022/12/28 14:46:38;;;;;;;5.35;3.08;;;;;;;3.51;100.00;101013.75;6310414;28;20055;-74
2022/12/28 14:49:41;;;;;;;7.95;3.03;;;;;;;3.46;100.00;101014.69;6293822;28;20040;-75
2022/12/28 14:52:46;;;;;;;8.65;5.13;;;;;;;3.49;100.00;101015.50;6294999;28;20442;-74
2022/12/28 14:56:17;;;;;;;12.77;4.63;;;;;;;3.36;100.00;101009.72;6293932;28;20056;-77
2022/12/28 14:59:29;;;;;;;4.60;3.00;;;;;;;3.22;100.00;101002.19;6280926;28;20092;-78
2022/12/28 15:02:33;;;;;;;15.37;6.17;;;;;;;3.23;100.00;101000.44;6294331;28;20476;-79
2022/12/28 15:05:43;;;;;;;22.20;7.90;;;;;;;3.20;100.00;100997.94;6293954;28;20052;-76